sensor_id;sensor_type;location;lat;lon;timestamp;P1;durP1;ratioP1;P2;durP2;ratioP2
25497;SDS011;13406;53.380;7.226;2022-09-13T00:00:31;7.85;;;7.05;;
25497;SDS011;13406;53.380;7.226;2022-09-13T00:02:57;7.30;;;6.60;;
25497;SDS011;13406;53.380;7.226;2022-09-13T00:05:23;10.47;;;8.50;;
25497;SDS011;13406;53.380;7.226;2022-09-13T00:07:48;8.50;;;7.60;;
25497;SDS011;13406;53.380;7.226;2022-09-13T00:10:14;11.00;;;7.53;;
25497;SDS011;13406;53.380;7.226;2022-09-13T00:12:39;7.90;;;7.10;;
25497;SDS011;13406;53.380;7.226;2022-09-13T00:15:05;8.60;;;7.60;;
25497;SDS011;13406;53.380;7.226;2022-09-13T00:17:31;9.20;;;7.60;;
25497;SDS011;13406;53.380;7.226;2022-09-13T00:19:57;9.70;;;7.30;;
25497;SDS011;13406;53.380;7.226;2022-09-13T00:22:22;8.07;;;7.27;;
25497;SDS011;13406;53.380;7.226;2022-09-13T00:24:47;9.00;;;7.50;;
25497;SDS011;13406;53.380;7.226;2022-09-13T00:29:38;9.30;;;7.70;;
25497;SDS011;13406;53.380;7.226;2022-09-13T00:34:29;9.80;;;8.80;;
25497;SDS011;13406;53.380;7.226;2022-09-13T00:36:54;8.53;;;7.63;;
25497;SDS011;13406;53.380;7.226;2022-09-13T00:41:45;10.30;;;9.20;;
25497;SDS011;13406;53.380;7.226;2022-09-13T00:49:42;11.20;;;9.97;;
25497;SDS011;13406;53.380;7.226;2022-09-13T00:52:12;13.43;;;9.50;;
25497;SDS011;13406;53.380;7.226;2022-09-13T00:54:43;9.70;;;8.63;;
25497;SDS011;13406;53.380;7.226;2022-09-13T00:57:13;11.60;;;9.10;;
25497;SDS011;13406;53.380;7.226;2022-09-13T00:59:45;11.20;;;8.57;;
25497;SDS011;13406;53.380;7.226;2022-09-13T01:02:17;8.50;;;7.43;;
25497;SDS011;13406;53.380;7.226;2022-09-13T01:04:43;8.20;;;7.40;;
25497;SDS011;13406;53.380;7.226;2022-09-13T01:07:10;9.37;;;7.27;;
25497;SDS011;13406;53.380;7.226;2022-09-13T01:09:40;6.73;;;6.03;;
25497;SDS011;13406;53.380;7.226;2022-09-13T01:14:42;6.53;;;5.57;;
25497;SDS011;13406;53.380;7.226;2022-09-13T01:17:09;7.37;;;6.60;;
25497;SDS011;13406;53.380;7.226;2022-09-13T01:19:35;8.47;;;6.10;;
25497;SDS011;13406;53.380;7.226;2022-09-13T01:30:23;8.73;;;6.60;;
25497;SDS011;13406;53.380;7.226;2022-09-13T01:41:05;6.40;;;5.40;;
25497;SDS011;13406;53.380;7.226;2022-09-13T01:46:27;9.30;;;5.77;;
25497;SDS011;13406;53.380;7.226;2022-09-13T01:56:57;6.20;;;5.57;;
25497;SDS011;13406;53.380;7.226;2022-09-13T01:59:32;7.07;;;5.60;;
25497;SDS011;13406;53.380;7.226;2022-09-13T02:02:10;7.83;;;5.77;;
25497;SDS011;13406;53.380;7.226;2022-09-13T02:04:57;6.80;;;5.73;;
25497;SDS011;13406;53.380;7.226;2022-09-13T02:07:28;9.97;;;6.70;;
25497;SDS011;13406;53.380;7.226;2022-09-13T02:10:02;8.17;;;7.07;;
25497;SDS011;13406;53.380;7.226;2022-09-13T02:12:33;6.90;;;6.03;;
25497;SDS011;13406;53.380;7.226;2022-09-13T02:15:21;7.63;;;6.63;;
25497;SDS011;13406;53.380;7.226;2022-09-13T02:18:00;6.70;;;5.80;;
25497;SDS011;13406;53.380;7.226;2022-09-13T02:20:32;8.80;;;6.97;;
25497;SDS011;13406;53.380;7.226;2022-09-13T02:23:02;7.80;;;7.00;;
25497;SDS011;13406;53.380;7.226;2022-09-13T02:25:32;10.90;;;8.13;;
25497;SDS011;13406;53.380;7.226;2022-09-13T02:28:02;8.03;;;6.90;;
25497;SDS011;13406;53.380;7.226;2022-09-13T02:30:31;11.17;;;9.20;;
25497;SDS011;13406;53.380;7.226;2022-09-13T02:33:06;8.70;;;7.80;;
25497;SDS011;13406;53.380;7.226;2022-09-13T02:35:39;8.10;;;7.30;;
25497;SDS011;13406;53.380;7.226;2022-09-13T02:38:19;10.27;;;8.10;;
25497;SDS011;13406;53.380;7.226;2022-09-13T02:40:55;9.17;;;7.93;;
25497;SDS011;13406;53.380;7.226;2022-09-13T02:43:30;10.10;;;7.37;;
25497;SDS011;13406;53.380;7.226;2022-09-13T02:46:08;11.83;;;8.30;;
25497;SDS011;13406;53.380;7.226;2022-09-13T02:51:24;11.00;;;8.63;;
25497;SDS011;13406;53.380;7.226;2022-09-13T02:57:03;13.73;;;8.70;;
25497;SDS011;13406;53.380;7.226;2022-09-13T02:59:36;10.20;;;9.20;;
25497;SDS011;13406;53.380;7.226;2022-09-13T03:02:02;10.70;;;8.37;;
25497;SDS011;13406;53.380;7.226;2022-09-13T03:04:33;8.40;;;7.50;;
25497;SDS011;13406;53.380;7.226;2022-09-13T03:07:00;7.80;;;4.87;;
25497;SDS011;13406;53.380;7.226;2022-09-13T03:09:28;5.00;;;3.53;;
25497;SDS011;13406;53.380;7.226;2022-09-13T03:17:50;2.00;;;0.77;;
25497;SDS011;13406;53.380;7.226;2022-09-13T03:20:21;2.57;;;1.10;;
25497;SDS011;13406;53.380;7.226;2022-09-13T04:20:36;1.40;;;1.30;;
25497;SDS011;13406;53.380;7.226;2022-09-13T04:23:01;3.40;;;1.60;;
25497;SDS011;13406;53.380;7.226;2022-09-13T04:25:27;2.93;;;1.70;;
25497;SDS011;13406;53.380;7.226;2022-09-13T04:27:52;2.40;;;1.20;;
25497;SDS011;13406;53.380;7.226;2022-09-13T04:30:19;2.97;;;1.33;;
25497;SDS011;13406;53.380;7.226;2022-09-13T04:32:45;2.67;;;1.17;;
25497;SDS011;13406;53.380;7.226;2022-09-13T04:35:11;2.20;;;1.30;;
25497;SDS011;13406;53.380;7.226;2022-09-13T04:37:37;2.07;;;0.90;;
25497;SDS011;13406;53.380;7.226;2022-09-13T04:40:03;1.87;;;1.00;;
25497;SDS011;13406;53.380;7.226;2022-09-13T05:38:24;2.67;;;0.87;;
25497;SDS011;13406;53.380;7.226;2022-09-13T05:40:56;2.70;;;0.87;;
25497;SDS011;13406;53.380;7.226;2022-09-13T05:43:24;2.30;;;1.00;;
25497;SDS011;13406;53.380;7.226;2022-09-13T05:45:58;2.10;;;0.97;;
25497;SDS011;13406;53.380;7.226;2022-09-13T05:48:28;2.20;;;0.90;;
25497;SDS011;13406;53.380;7.226;2022-09-13T05:50:54;2.83;;;1.13;;
25497;SDS011;13406;53.380;7.226;2022-09-13T05:53:19;3.97;;;0.90;;
25497;SDS011;13406;53.380;7.226;2022-09-13T05:55:44;3.93;;;1.00;;
25497;SDS011;13406;53.380;7.226;2022-09-13T05:58:10;3.60;;;1.30;;
25497;SDS011;13406;53.380;7.226;2022-09-13T06:00:35;3.00;;;1.30;;
25497;SDS011;13406;53.380;7.226;2022-09-13T06:03:01;4.40;;;1.03;;
25497;SDS011;13406;53.380;7.226;2022-09-13T06:05:26;4.80;;;1.20;;
25497;SDS011;13406;53.380;7.226;2022-09-13T06:07:52;2.07;;;1.10;;
25497;SDS011;13406;53.380;7.226;2022-09-13T06:10:17;1.87;;;1.00;;
25497;SDS011;13406;53.380;7.226;2022-09-13T06:12:44;3.40;;;1.20;;
25497;SDS011;13406;53.380;7.226;2022-09-13T06:15:10;5.93;;;1.17;;
25497;SDS011;13406;53.380;7.226;2022-09-13T06:17:35;5.50;;;1.30;;
25497;SDS011;13406;53.380;7.226;2022-09-13T06:20:01;6.10;;;1.10;;
25497;SDS011;13406;53.380;7.226;2022-09-13T06:22:27;2.97;;;1.00;;
25497;SDS011;13406;53.380;7.226;2022-09-13T06:24:57;3.50;;;1.00;;
25497;SDS011;13406;53.380;7.226;2022-09-13T06:27:25;3.90;;;1.30;;
25497;SDS011;13406;53.380;7.226;2022-09-13T06:34:41;2.60;;;1.40;;
25497;SDS011;13406;53.380;7.226;2022-09-13T06:37:06;4.50;;;0.80;;
25497;SDS011;13406;53.380;7.226;2022-09-13T06:39:32;6.00;;;1.07;;
25497;SDS011;13406;53.380;7.226;2022-09-13T06:41:58;4.90;;;1.20;;
25497;SDS011;13406;53.380;7.226;2022-09-13T06:44:24;5.07;;;1.20;;
25497;SDS011;13406;53.380;7.226;2022-09-13T06:46:49;3.03;;;1.00;;
25497;SDS011;13406;53.380;7.226;2022-09-13T06:49:15;7.70;;;1.33;;
25497;SDS011;13406;53.380;7.226;2022-09-13T06:51:40;3.07;;;1.17;;
25497;SDS011;13406;53.380;7.226;2022-09-13T06:54:05;4.60;;;1.10;;
25497;SDS011;13406;53.380;7.226;2022-09-13T07:06:26;2.20;;;0.90;;
25497;SDS011;13406;53.380;7.226;2022-09-13T07:08:54;3.90;;;1.00;;
25497;SDS011;13406;53.380;7.226;2022-09-13T07:11:21;2.00;;;1.10;;
25497;SDS011;13406;53.380;7.226;2022-09-13T07:13:49;2.20;;;1.00;;
25497;SDS011;13406;53.380;7.226;2022-09-13T07:16:19;2.07;;;0.90;;
25497;SDS011;13406;53.380;7.226;2022-09-13T07:18:59;3.67;;;0.80;;
25497;SDS011;13406;53.380;7.226;2022-09-13T07:21:26;1.20;;;0.80;;
25497;SDS011;13406;53.380;7.226;2022-09-13T07:23:53;1.50;;;0.90;;
25497;SDS011;13406;53.380;7.226;2022-09-13T07:26:19;1.37;;;0.80;;
25497;SDS011;13406;53.380;7.226;2022-09-13T07:28:46;3.60;;;0.80;;
25497;SDS011;13406;53.380;7.226;2022-09-13T07:31:14;4.60;;;0.80;;
25497;SDS011;13406;53.380;7.226;2022-09-13T07:33:42;3.60;;;1.00;;
25497;SDS011;13406;53.380;7.226;2022-09-13T07:36:09;3.67;;;1.00;;
25497;SDS011;13406;53.380;7.226;2022-09-13T07:38:36;4.53;;;1.00;;
25497;SDS011;13406;53.380;7.226;2022-09-13T07:41:12;2.60;;;0.80;;
25497;SDS011;13406;53.380;7.226;2022-09-13T07:43:47;2.93;;;0.90;;
25497;SDS011;13406;53.380;7.226;2022-09-13T07:46:14;5.10;;;1.20;;
25497;SDS011;13406;53.380;7.226;2022-09-13T07:48:42;2.13;;;0.97;;
25497;SDS011;13406;53.380;7.226;2022-09-13T07:51:15;3.90;;;0.90;;
25497;SDS011;13406;53.380;7.226;2022-09-13T07:53:44;10.37;;;2.67;;
25497;SDS011;13406;53.380;7.226;2022-09-13T07:56:14;5.03;;;1.30;;
25497;SDS011;13406;53.380;7.226;2022-09-13T07:58:44;1.97;;;0.80;;
25497;SDS011;13406;53.380;7.226;2022-09-13T08:01:12;3.20;;;0.80;;
25497;SDS011;13406;53.380;7.226;2022-09-13T08:03:40;4.70;;;1.00;;
25497;SDS011;13406;53.380;7.226;2022-09-13T08:06:06;2.30;;;0.80;;
25497;SDS011;13406;53.380;7.226;2022-09-13T08:08:33;5.53;;;1.30;;
25497;SDS011;13406;53.380;7.226;2022-09-13T08:11:00;3.23;;;0.90;;
25497;SDS011;13406;53.380;7.226;2022-09-13T08:13:27;3.43;;;0.90;;
25497;SDS011;13406;53.380;7.226;2022-09-13T08:16:02;5.33;;;0.97;;
25497;SDS011;13406;53.380;7.226;2022-09-13T08:18:29;3.07;;;0.97;;
25497;SDS011;13406;53.380;7.226;2022-09-13T08:20:58;6.63;;;1.47;;
25497;SDS011;13406;53.380;7.226;2022-09-13T08:23:25;4.35;;;1.15;;
25497;SDS011;13406;53.380;7.226;2022-09-13T08:25:51;4.13;;;1.03;;
25497;SDS011;13406;53.380;7.226;2022-09-13T08:30:45;5.07;;;1.03;;
25497;SDS011;13406;53.380;7.226;2022-09-13T08:33:11;3.10;;;1.10;;
25497;SDS011;13406;53.380;7.226;2022-09-13T08:35:36;5.40;;;1.33;;
25497;SDS011;13406;53.380;7.226;2022-09-13T08:38:02;2.40;;;0.90;;
25497;SDS011;13406;53.380;7.226;2022-09-13T08:40:30;3.00;;;0.90;;
25497;SDS011;13406;53.380;7.226;2022-09-13T08:43:04;2.57;;;0.93;;
25497;SDS011;13406;53.380;7.226;2022-09-13T08:45:41;2.13;;;0.70;;
25497;SDS011;13406;53.380;7.226;2022-09-13T08:48:13;3.20;;;0.97;;
25497;SDS011;13406;53.380;7.226;2022-09-13T08:50:42;3.47;;;1.00;;
25497;SDS011;13406;53.380;7.226;2022-09-13T08:55:46;2.40;;;0.70;;
25497;SDS011;13406;53.380;7.226;2022-09-13T09:01:18;4.65;;;1.20;;
25497;SDS011;13406;53.380;7.226;2022-09-13T09:04:11;5.03;;;1.10;;
25497;SDS011;13406;53.380;7.226;2022-09-13T09:07:02;5.23;;;1.00;;
25497;SDS011;13406;53.380;7.226;2022-09-13T09:09:34;5.53;;;1.30;;
25497;SDS011;13406;53.380;7.226;2022-09-13T09:17:42;2.90;;;0.97;;
25497;SDS011;13406;53.380;7.226;2022-09-13T09:22:50;3.20;;;0.97;;
25497;SDS011;13406;53.380;7.226;2022-09-13T09:25:17;4.50;;;1.13;;
25497;SDS011;13406;53.380;7.226;2022-09-13T09:37:36;3.00;;;0.90;;
25497;SDS011;13406;53.380;7.226;2022-09-13T09:40:04;1.63;;;0.77;;
25497;SDS011;13406;53.380;7.226;2022-09-13T09:42:38;4.13;;;1.10;;
25497;SDS011;13406;53.380;7.226;2022-09-13T09:45:39;2.33;;;0.80;;
25497;SDS011;13406;53.380;7.226;2022-09-13T09:48:07;2.80;;;0.90;;
25497;SDS011;13406;53.380;7.226;2022-09-13T09:50:42;2.57;;;0.90;;
25497;SDS011;13406;53.380;7.226;2022-09-13T09:53:21;4.23;;;1.07;;
25497;SDS011;13406;53.380;7.226;2022-09-13T09:56:25;3.50;;;0.90;;
25497;SDS011;13406;53.380;7.226;2022-09-13T09:58:50;3.83;;;0.90;;
25497;SDS011;13406;53.380;7.226;2022-09-13T10:01:28;2.27;;;0.80;;
25497;SDS011;13406;53.380;7.226;2022-09-13T10:06:42;3.03;;;1.00;;
25497;SDS011;13406;53.380;7.226;2022-09-13T10:14:06;3.00;;;0.90;;
25497;SDS011;13406;53.380;7.226;2022-09-13T10:27:01;2.43;;;1.03;;
25497;SDS011;13406;53.380;7.226;2022-09-13T10:29:28;3.10;;;0.90;;
25497;SDS011;13406;53.380;7.226;2022-09-13T10:31:55;3.73;;;0.90;;
25497;SDS011;13406;53.380;7.226;2022-09-13T10:39:25;1.80;;;0.80;;
25497;SDS011;13406;53.380;7.226;2022-09-13T10:41:55;4.37;;;1.20;;
25497;SDS011;13406;53.380;7.226;2022-09-13T10:44:27;3.17;;;1.10;;
25497;SDS011;13406;53.380;7.226;2022-09-13T10:46:57;4.37;;;0.93;;
25497;SDS011;13406;53.380;7.226;2022-09-13T10:54:51;3.17;;;0.70;;
25497;SDS011;13406;53.380;7.226;2022-09-13T10:59:58;2.53;;;0.90;;
25497;SDS011;13406;53.380;7.226;2022-09-13T11:02:34;3.73;;;1.00;;
25497;SDS011;13406;53.380;7.226;2022-09-13T11:27:30;3.43;;;1.00;;
25497;SDS011;13406;53.380;7.226;2022-09-13T11:30:19;4.40;;;1.13;;
25497;SDS011;13406;53.380;7.226;2022-09-13T11:35:27;1.97;;;0.70;;
25497;SDS011;13406;53.380;7.226;2022-09-13T11:38:20;4.30;;;1.20;;
25497;SDS011;13406;53.380;7.226;2022-09-13T11:47:07;2.77;;;1.27;;
25497;SDS011;13406;53.380;7.226;2022-09-13T11:49:53;2.90;;;0.97;;
25497;SDS011;13406;53.380;7.226;2022-09-13T11:53:00;3.23;;;0.87;;
25497;SDS011;13406;53.380;7.226;2022-09-13T11:55:29;4.80;;;1.10;;
25497;SDS011;13406;53.380;7.226;2022-09-13T11:58:01;2.80;;;1.10;;
25497;SDS011;13406;53.380;7.226;2022-09-13T12:03:40;8.10;;;1.50;;
25497;SDS011;13406;53.380;7.226;2022-09-13T12:08:50;3.80;;;1.00;;
25497;SDS011;13406;53.380;7.226;2022-09-13T12:11:20;3.53;;;1.00;;
25497;SDS011;13406;53.380;7.226;2022-09-13T12:16:27;4.87;;;1.30;;
25497;SDS011;13406;53.380;7.226;2022-09-13T12:18:58;3.43;;;0.97;;
25497;SDS011;13406;53.380;7.226;2022-09-13T12:21:31;3.97;;;1.27;;
25497;SDS011;13406;53.380;7.226;2022-09-13T12:24:15;5.17;;;1.40;;
25497;SDS011;13406;53.380;7.226;2022-09-13T12:30:03;8.80;;;1.83;;
25497;SDS011;13406;53.380;7.226;2022-09-13T12:32:36;3.10;;;1.20;;
25497;SDS011;13406;53.380;7.226;2022-09-13T12:35:04;3.27;;;1.30;;
25497;SDS011;13406;53.380;7.226;2022-09-13T12:46:16;3.50;;;1.10;;
25497;SDS011;13406;53.380;7.226;2022-09-13T13:05:29;2.77;;;1.03;;
25497;SDS011;13406;53.380;7.226;2022-09-13T13:08:00;5.23;;;1.07;;
25497;SDS011;13406;53.380;7.226;2022-09-13T13:10:33;3.13;;;0.87;;
25497;SDS011;13406;53.380;7.226;2022-09-13T13:18:21;4.07;;;0.70;;
25497;SDS011;13406;53.380;7.226;2022-09-13T13:31:44;2.90;;;0.93;;
25497;SDS011;13406;53.380;7.226;2022-09-13T13:34:38;2.95;;;0.90;;
25497;SDS011;13406;53.380;7.226;2022-09-13T13:37:22;3.10;;;0.90;;
25497;SDS011;13406;53.380;7.226;2022-09-13T13:40:11;3.53;;;1.00;;
25497;SDS011;13406;53.380;7.226;2022-09-13T13:42:45;2.13;;;0.80;;
25497;SDS011;13406;53.380;7.226;2022-09-13T13:45:18;2.33;;;1.00;;
25497;SDS011;13406;53.380;7.226;2022-09-13T13:48:23;2.40;;;0.90;;
25497;SDS011;13406;53.380;7.226;2022-09-13T13:53:35;2.40;;;1.03;;
25497;SDS011;13406;53.380;7.226;2022-09-13T13:56:16;2.40;;;0.90;;
25497;SDS011;13406;53.380;7.226;2022-09-13T14:01:15;4.40;;;1.20;;
25497;SDS011;13406;53.380;7.226;2022-09-13T14:03:59;5.43;;;1.10;;
25497;SDS011;13406;53.380;7.226;2022-09-13T14:06:31;4.63;;;1.00;;
25497;SDS011;13406;53.380;7.226;2022-09-13T14:15:27;3.60;;;1.10;;
25497;SDS011;13406;53.380;7.226;2022-09-13T14:20:55;5.07;;;1.00;;
25497;SDS011;13406;53.380;7.226;2022-09-13T14:23:24;5.43;;;1.10;;
25497;SDS011;13406;53.380;7.226;2022-09-13T14:25:53;2.50;;;1.03;;
25497;SDS011;13406;53.380;7.226;2022-09-13T14:28:22;2.57;;;0.90;;
25497;SDS011;13406;53.380;7.226;2022-09-13T14:30:51;4.77;;;0.83;;
25497;SDS011;13406;53.380;7.226;2022-09-13T14:33:26;3.10;;;1.10;;
25497;SDS011;13406;53.380;7.226;2022-09-13T14:36:05;3.33;;;0.93;;
25497;SDS011;13406;53.380;7.226;2022-09-13T14:38:45;2.00;;;1.07;;
25497;SDS011;13406;53.380;7.226;2022-09-13T14:43:39;1.67;;;0.60;;
25497;SDS011;13406;53.380;7.226;2022-09-13T14:51:27;2.30;;;0.80;;
25497;SDS011;13406;53.380;7.226;2022-09-13T14:54:15;2.00;;;0.87;;
25497;SDS011;13406;53.380;7.226;2022-09-13T14:56:52;1.67;;;0.80;;
25497;SDS011;13406;53.380;7.226;2022-09-13T15:01:57;1.53;;;0.80;;
25497;SDS011;13406;53.380;7.226;2022-09-13T15:04:46;2.03;;;0.90;;
25497;SDS011;13406;53.380;7.226;2022-09-13T15:07:18;4.30;;;0.87;;
25497;SDS011;13406;53.380;7.226;2022-09-13T15:12:52;1.57;;;0.70;;
25497;SDS011;13406;53.380;7.226;2022-09-13T15:17:52;2.70;;;1.00;;
25497;SDS011;13406;53.380;7.226;2022-09-13T15:20:54;5.73;;;1.30;;
25497;SDS011;13406;53.380;7.226;2022-09-13T15:26:03;5.30;;;1.20;;
25497;SDS011;13406;53.380;7.226;2022-09-13T15:28:32;2.20;;;0.80;;
25497;SDS011;13406;53.380;7.226;2022-09-13T16:08:15;3.87;;;1.07;;
25497;SDS011;13406;53.380;7.226;2022-09-13T16:10:40;3.60;;;1.10;;
25497;SDS011;13406;53.380;7.226;2022-09-13T16:13:06;2.20;;;1.33;;
25497;SDS011;13406;53.380;7.226;2022-09-13T16:15:31;3.00;;;0.73;;
25497;SDS011;13406;53.380;7.226;2022-09-13T16:17:57;1.57;;;0.67;;
25497;SDS011;13406;53.380;7.226;2022-09-13T16:20:22;2.53;;;0.80;;
25497;SDS011;13406;53.380;7.226;2022-09-13T16:22:47;2.43;;;0.90;;
25497;SDS011;13406;53.380;7.226;2022-09-13T16:25:13;3.30;;;0.70;;
25497;SDS011;13406;53.380;7.226;2022-09-13T16:27:42;2.07;;;0.87;;
25497;SDS011;13406;53.380;7.226;2022-09-13T16:30:12;3.93;;;0.90;;
25497;SDS011;13406;53.380;7.226;2022-09-13T16:32:42;2.07;;;0.60;;
25497;SDS011;13406;53.380;7.226;2022-09-13T16:35:08;1.67;;;0.70;;
25497;SDS011;13406;53.380;7.226;2022-09-13T16:37:35;1.57;;;0.97;;
25497;SDS011;13406;53.380;7.226;2022-09-13T16:40:01;1.77;;;0.70;;
25497;SDS011;13406;53.380;7.226;2022-09-13T16:42:26;3.65;;;1.00;;
25497;SDS011;13406;53.380;7.226;2022-09-13T16:44:52;3.17;;;1.00;;
25497;SDS011;13406;53.380;7.226;2022-09-13T16:47:17;2.47;;;1.00;;
25497;SDS011;13406;53.380;7.226;2022-09-13T16:49:43;5.30;;;0.97;;
25497;SDS011;13406;53.380;7.226;2022-09-13T16:52:08;2.30;;;0.73;;
25497;SDS011;13406;53.380;7.226;2022-09-13T16:54:34;3.33;;;1.07;;
25497;SDS011;13406;53.380;7.226;2022-09-13T16:57:00;2.87;;;1.03;;
25497;SDS011;13406;53.380;7.226;2022-09-13T18:41:38;2.57;;;0.83;;
25497;SDS011;13406;53.380;7.226;2022-09-13T18:44:08;3.35;;;0.95;;
25497;SDS011;13406;53.380;7.226;2022-09-13T18:46:34;3.43;;;0.90;;
25497;SDS011;13406;53.380;7.226;2022-09-13T18:49:01;2.03;;;0.80;;
25497;SDS011;13406;53.380;7.226;2022-09-13T18:53:58;3.33;;;1.10;;
25497;SDS011;13406;53.380;7.226;2022-09-13T18:56:24;1.63;;;0.77;;
25497;SDS011;13406;53.380;7.226;2022-09-13T18:58:51;3.40;;;0.80;;
25497;SDS011;13406;53.380;7.226;2022-09-13T19:01:21;1.30;;;0.70;;
25497;SDS011;13406;53.380;7.226;2022-09-13T19:03:58;5.93;;;1.13;;
25497;SDS011;13406;53.380;7.226;2022-09-13T19:08:54;1.10;;;0.80;;
25497;SDS011;13406;53.380;7.226;2022-09-13T19:11:22;2.10;;;0.80;;
25497;SDS011;13406;53.380;7.226;2022-09-13T19:13:49;1.73;;;1.00;;
25497;SDS011;13406;53.380;7.226;2022-09-13T19:16:15;2.13;;;0.70;;
25497;SDS011;13406;53.380;7.226;2022-09-13T19:18:43;4.13;;;0.90;;
25497;SDS011;13406;53.380;7.226;2022-09-13T19:21:14;2.40;;;1.07;;
25497;SDS011;13406;53.380;7.226;2022-09-13T19:23:42;2.30;;;1.00;;
25497;SDS011;13406;53.380;7.226;2022-09-13T19:28:45;3.73;;;1.03;;
25497;SDS011;13406;53.380;7.226;2022-09-13T19:31:12;3.43;;;1.03;;
25497;SDS011;13406;53.380;7.226;2022-09-13T19:33:38;2.40;;;0.85;;
25497;SDS011;13406;53.380;7.226;2022-09-13T19:36:06;1.60;;;0.90;;
25497;SDS011;13406;53.380;7.226;2022-09-13T19:38:34;3.03;;;0.80;;
25497;SDS011;13406;53.380;7.226;2022-09-13T19:41:00;2.00;;;0.80;;
25497;SDS011;13406;53.380;7.226;2022-09-13T19:43:29;1.03;;;0.60;;
25497;SDS011;13406;53.380;7.226;2022-09-13T19:45:58;2.47;;;0.90;;
25497;SDS011;13406;53.380;7.226;2022-09-13T19:48:25;1.63;;;1.03;;
25497;SDS011;13406;53.380;7.226;2022-09-13T19:50:52;2.15;;;0.80;;
25497;SDS011;13406;53.380;7.226;2022-09-13T19:53:18;2.30;;;0.80;;
25497;SDS011;13406;53.380;7.226;2022-09-13T19:55:43;2.23;;;0.80;;
25497;SDS011;13406;53.380;7.226;2022-09-13T19:58:11;4.00;;;0.90;;
25497;SDS011;13406;53.380;7.226;2022-09-13T20:00:39;1.83;;;0.70;;
25497;SDS011;13406;53.380;7.226;2022-09-13T20:03:06;2.97;;;1.17;;
25497;SDS011;13406;53.380;7.226;2022-09-13T20:05:32;4.60;;;0.70;;
25497;SDS011;13406;53.380;7.226;2022-09-13T20:07:58;2.90;;;0.80;;
25497;SDS011;13406;53.380;7.226;2022-09-13T20:10:24;5.63;;;0.80;;
25497;SDS011;13406;53.380;7.226;2022-09-13T20:12:49;2.70;;;0.73;;
25497;SDS011;13406;53.380;7.226;2022-09-13T20:15:18;2.73;;;0.93;;
25497;SDS011;13406;53.380;7.226;2022-09-13T20:17:47;1.33;;;0.73;;
25497;SDS011;13406;53.380;7.226;2022-09-13T20:22:38;2.07;;;0.70;;
25497;SDS011;13406;53.380;7.226;2022-09-13T20:25:04;2.03;;;0.77;;
25497;SDS011;13406;53.380;7.226;2022-09-13T20:27:30;1.63;;;0.60;;
25497;SDS011;13406;53.380;7.226;2022-09-13T20:29:56;5.90;;;0.63;;
25497;SDS011;13406;53.380;7.226;2022-09-13T20:32:22;2.60;;;0.80;;
25497;SDS011;13406;53.380;7.226;2022-09-13T20:34:48;1.57;;;0.77;;
25497;SDS011;13406;53.380;7.226;2022-09-13T20:37:14;2.40;;;0.80;;
25497;SDS011;13406;53.380;7.226;2022-09-13T20:39:41;2.90;;;0.80;;
25497;SDS011;13406;53.380;7.226;2022-09-13T20:42:07;2.23;;;0.73;;
25497;SDS011;13406;53.380;7.226;2022-09-13T20:44:32;1.63;;;0.60;;
25497;SDS011;13406;53.380;7.226;2022-09-13T20:46:58;2.37;;;0.80;;
25497;SDS011;13406;53.380;7.226;2022-09-13T20:49:24;2.30;;;0.70;;
25497;SDS011;13406;53.380;7.226;2022-09-13T20:51:50;1.40;;;1.00;;
25497;SDS011;13406;53.380;7.226;2022-09-13T20:54:16;2.73;;;0.80;;
25497;SDS011;13406;53.380;7.226;2022-09-13T20:56:42;4.03;;;1.43;;
25497;SDS011;13406;53.380;7.226;2022-09-13T20:59:07;2.13;;;0.90;;
25497;SDS011;13406;53.380;7.226;2022-09-13T21:01:34;2.73;;;1.00;;
25497;SDS011;13406;53.380;7.226;2022-09-13T21:04:00;2.27;;;0.87;;
25497;SDS011;13406;53.380;7.226;2022-09-13T21:06:27;1.83;;;0.80;;
25497;SDS011;13406;53.380;7.226;2022-09-13T21:08:55;4.20;;;1.33;;
25497;SDS011;13406;53.380;7.226;2022-09-13T21:11:24;1.63;;;0.80;;
25497;SDS011;13406;53.380;7.226;2022-09-13T21:13:57;1.23;;;0.90;;
25497;SDS011;13406;53.380;7.226;2022-09-13T21:16:25;1.90;;;1.00;;
25497;SDS011;13406;53.380;7.226;2022-09-13T21:18:52;2.87;;;1.20;;
25497;SDS011;13406;53.380;7.226;2022-09-13T21:21:19;1.83;;;1.00;;
25497;SDS011;13406;53.380;7.226;2022-09-13T21:23:47;2.60;;;1.00;;
25497;SDS011;13406;53.380;7.226;2022-09-13T21:26:14;3.03;;;1.40;;
25497;SDS011;13406;53.380;7.226;2022-09-13T21:28:42;2.90;;;1.40;;
25497;SDS011;13406;53.380;7.226;2022-09-13T21:38:30;3.17;;;1.27;;
25497;SDS011;13406;53.380;7.226;2022-09-13T21:40:58;2.43;;;1.20;;
25497;SDS011;13406;53.380;7.226;2022-09-13T21:43:27;2.87;;;1.17;;
25497;SDS011;13406;53.380;7.226;2022-09-13T21:46:06;4.90;;;1.20;;
25497;SDS011;13406;53.380;7.226;2022-09-13T21:48:32;4.20;;;1.37;;
25497;SDS011;13406;53.380;7.226;2022-09-13T21:56:02;1.97;;;0.90;;
25497;SDS011;13406;53.380;7.226;2022-09-13T21:58:32;5.13;;;1.20;;
25497;SDS011;13406;53.380;7.226;2022-09-13T22:01:06;6.60;;;1.50;;
25497;SDS011;13406;53.380;7.226;2022-09-13T22:03:35;4.93;;;1.50;;
25497;SDS011;13406;53.380;7.226;2022-09-13T22:06:02;2.60;;;1.63;;
25497;SDS011;13406;53.380;7.226;2022-09-13T22:08:32;4.40;;;1.00;;
25497;SDS011;13406;53.380;7.226;2022-09-13T22:11:05;2.20;;;1.10;;
25497;SDS011;13406;53.380;7.226;2022-09-13T22:13:34;1.43;;;0.73;;
25497;SDS011;13406;53.380;7.226;2022-09-13T22:16:07;1.80;;;0.80;;
25497;SDS011;13406;53.380;7.226;2022-09-13T22:59:48;2.63;;;1.00;;
25497;SDS011;13406;53.380;7.226;2022-09-13T23:04:39;4.33;;;0.90;;
25497;SDS011;13406;53.380;7.226;2022-09-13T23:07:04;2.30;;;0.80;;
25497;SDS011;13406;53.380;7.226;2022-09-13T23:09:30;1.70;;;0.80;;
25497;SDS011;13406;53.380;7.226;2022-09-13T23:14:20;1.53;;;0.90;;
25497;SDS011;13406;53.380;7.226;2022-09-13T23:16:47;3.80;;;0.90;;
25497;SDS011;13406;53.380;7.226;2022-09-13T23:19:14;1.40;;;0.70;;
25497;SDS011;13406;53.380;7.226;2022-09-13T23:24:09;2.40;;;1.00;;
25497;SDS011;13406;53.380;7.226;2022-09-13T23:26:36;2.80;;;0.80;;
25497;SDS011;13406;53.380;7.226;2022-09-13T23:29:03;1.67;;;0.90;;
25497;SDS011;13406;53.380;7.226;2022-09-13T23:31:30;2.45;;;1.00;;
25497;SDS011;13406;53.380;7.226;2022-09-13T23:53:27;2.50;;;1.00;;
25497;SDS011;13406;53.380;7.226;2022-09-13T23:58:18;1.37;;;1.00;;
